sensor_id;sensor_type;location;lat;lon;timestamp;temperature;humidity
19728;DHT22;10015;52.530;13.390;2022-08-19T00:18:57;25.30;99.90
19728;DHT22;10015;52.530;13.390;2022-08-19T00:21:24;25.20;99.90
19728;DHT22;10015;52.530;13.390;2022-08-19T00:23:53;25.30;99.90
19728;DHT22;10015;52.530;13.390;2022-08-19T00:26:19;25.20;99.90
19728;DHT22;10015;52.530;13.390;2022-08-19T00:28:46;25.20;99.90
19728;DHT22;10015;52.530;13.390;2022-08-19T00:31:13;25.00;99.90
19728;DHT22;10015;52.530;13.390;2022-08-19T00:33:39;24.90;99.90
19728;DHT22;10015;52.530;13.390;2022-08-19T00:36:07;24.90;99.90
19728;DHT22;10015;52.530;13.390;2022-08-19T00:38:35;24.80;99.90
19728;DHT22;10015;52.530;13.390;2022-08-19T00:41:01;24.80;99.90
19728;DHT22;10015;52.530;13.390;2022-08-19T00:43:27;24.80;99.90
19728;DHT22;10015;52.530;13.390;2022-08-19T00:45:53;24.80;99.90
19728;DHT22;10015;52.530;13.390;2022-08-19T00:48:20;24.80;99.90
19728;DHT22;10015;52.530;13.390;2022-08-19T00:50:49;24.90;99.90
19728;DHT22;10015;52.530;13.390;2022-08-19T00:53:20;24.90;99.90
19728;DHT22;10015;52.530;13.390;2022-08-19T00:55:49;25.00;99.90
19728;DHT22;10015;52.530;13.390;2022-08-19T00:58:19;25.00;99.90
19728;DHT22;10015;52.530;13.390;2022-08-19T01:00:47;25.00;99.90
19728;DHT22;10015;52.530;13.390;2022-08-19T01:03:16;24.90;99.90
19728;DHT22;10015;52.530;13.390;2022-08-19T01:05:44;24.80;99.90
19728;DHT22;10015;52.530;13.390;2022-08-19T01:08:11;24.70;99.90
19728;DHT22;10015;52.530;13.390;2022-08-19T01:10:47;24.70;99.90
19728;DHT22;10015;52.530;13.390;2022-08-19T01:13:15;24.60;99.90
19728;DHT22;10015;52.530;13.390;2022-08-19T01:15:52;24.60;99.90
19728;DHT22;10015;52.530;13.390;2022-08-19T01:18:20;24.70;99.90
19728;DHT22;10015;52.530;13.390;2022-08-19T01:20:47;24.70;99.90
19728;DHT22;10015;52.530;13.390;2022-08-19T01:23:14;24.70;99.90
19728;DHT22;10015;52.530;13.390;2022-08-19T01:28:07;24.70;99.90
19728;DHT22;10015;52.530;13.390;2022-08-19T01:30:35;24.60;99.90
19728;DHT22;10015;52.530;13.390;2022-08-19T01:33:01;24.50;99.90
19728;DHT22;10015;52.530;13.390;2022-08-19T01:35:29;24.50;99.90
19728;DHT22;10015;52.530;13.390;2022-08-19T01:38:01;24.50;99.90
19728;DHT22;10015;52.530;13.390;2022-08-19T01:40:33;24.50;99.90
19728;DHT22;10015;52.530;13.390;2022-08-19T01:42:59;24.50;99.90
19728;DHT22;10015;52.530;13.390;2022-08-19T01:45:27;24.40;99.90
19728;DHT22;10015;52.530;13.390;2022-08-19T01:47:55;24.40;99.90
19728;DHT22;10015;52.530;13.390;2022-08-19T01:50:21;24.50;99.90
19728;DHT22;10015;52.530;13.390;2022-08-19T01:52:47;24.50;99.90
19728;DHT22;10015;52.530;13.390;2022-08-19T01:55:17;24.50;99.90
19728;DHT22;10015;52.530;13.390;2022-08-19T01:57:48;24.50;99.90
19728;DHT22;10015;52.530;13.390;2022-08-19T02:00:18;24.50;99.90
19728;DHT22;10015;52.530;13.390;2022-08-19T02:02:45;24.40;99.90
19728;DHT22;10015;52.530;13.390;2022-08-19T02:05:11;24.40;99.90
19728;DHT22;10015;52.530;13.390;2022-08-19T02:07:38;24.50;99.90
19728;DHT22;10015;52.530;13.390;2022-08-19T02:10:07;24.40;99.90
19728;DHT22;10015;52.530;13.390;2022-08-19T02:12:33;24.30;99.90
19728;DHT22;10015;52.530;13.390;2022-08-19T02:14:59;24.10;99.90
19728;DHT22;10015;52.530;13.390;2022-08-19T02:17:27;24.20;99.90
19728;DHT22;10015;52.530;13.390;2022-08-19T02:19:55;24.20;99.90
19728;DHT22;10015;52.530;13.390;2022-08-19T02:22:21;24.00;99.90
19728;DHT22;10015;52.530;13.390;2022-08-19T02:24:47;23.90;99.90
19728;DHT22;10015;52.530;13.390;2022-08-19T02:27:14;23.90;99.90
19728;DHT22;10015;52.530;13.390;2022-08-19T02:29:40;23.80;99.90
19728;DHT22;10015;52.530;13.390;2022-08-19T02:32:07;23.90;99.90
19728;DHT22;10015;52.530;13.390;2022-08-19T02:34:33;23.90;99.90
19728;DHT22;10015;52.530;13.390;2022-08-19T02:36:59;23.90;99.90
19728;DHT22;10015;52.530;13.390;2022-08-19T02:39:26;23.90;99.90
19728;DHT22;10015;52.530;13.390;2022-08-19T02:41:53;23.90;99.90
19728;DHT22;10015;52.530;13.390;2022-08-19T02:44:19;23.90;99.90
19728;DHT22;10015;52.530;13.390;2022-08-19T02:46:47;24.00;99.90
19728;DHT22;10015;52.530;13.390;2022-08-19T02:49:13;24.00;99.90
19728;DHT22;10015;52.530;13.390;2022-08-19T02:51:45;24.00;99.90
19728;DHT22;10015;52.530;13.390;2022-08-19T02:54:13;24.00;99.90
19728;DHT22;10015;52.530;13.390;2022-08-19T02:56:41;24.00;99.90
19728;DHT22;10015;52.530;13.390;2022-08-19T02:59:08;24.10;99.90
19728;DHT22;10015;52.530;13.390;2022-08-19T03:01:35;24.10;99.90
19728;DHT22;10015;52.530;13.390;2022-08-19T03:04:05;24.00;99.90
19728;DHT22;10015;52.530;13.390;2022-08-19T03:06:31;24.10;99.90
19728;DHT22;10015;52.530;13.390;2022-08-19T03:08:57;24.10;99.90
19728;DHT22;10015;52.530;13.390;2022-08-19T03:11:28;24.10;99.90
19728;DHT22;10015;52.530;13.390;2022-08-19T03:14:06;24.20;99.90
19728;DHT22;10015;52.530;13.390;2022-08-19T03:16:35;24.10;99.90
19728;DHT22;10015;52.530;13.390;2022-08-19T03:19:01;24.00;99.90
19728;DHT22;10015;52.530;13.390;2022-08-19T03:21:30;23.90;99.90
19728;DHT22;10015;52.530;13.390;2022-08-19T03:23:59;23.90;99.90
19728;DHT22;10015;52.530;13.390;2022-08-19T03:26:25;24.00;99.90
19728;DHT22;10015;52.530;13.390;2022-08-19T03:28:51;24.00;99.90
19728;DHT22;10015;52.530;13.390;2022-08-19T03:31:20;24.00;99.90
19728;DHT22;10015;52.530;13.390;2022-08-19T03:33:50;24.00;99.90
19728;DHT22;10015;52.530;13.390;2022-08-19T03:36:21;24.00;99.90
19728;DHT22;10015;52.530;13.390;2022-08-19T03:38:54;24.10;99.90
19728;DHT22;10015;52.530;13.390;2022-08-19T03:41:23;24.00;99.90
19728;DHT22;10015;52.530;13.390;2022-08-19T03:43:49;24.10;99.90
19728;DHT22;10015;52.530;13.390;2022-08-19T03:46:18;24.00;99.90
19728;DHT22;10015;52.530;13.390;2022-08-19T03:48:46;24.00;99.90
19728;DHT22;10015;52.530;13.390;2022-08-19T03:51:25;24.00;99.90
19728;DHT22;10015;52.530;13.390;2022-08-19T03:53:53;24.00;99.90
19728;DHT22;10015;52.530;13.390;2022-08-19T03:56:20;23.90;99.90
19728;DHT22;10015;52.530;13.390;2022-08-19T03:58:46;23.90;99.90
19728;DHT22;10015;52.530;13.390;2022-08-19T04:01:16;23.70;99.90
19728;DHT22;10015;52.530;13.390;2022-08-19T04:03:43;23.70;99.90
19728;DHT22;10015;52.530;13.390;2022-08-19T04:06:30;23.70;99.90
19728;DHT22;10015;52.530;13.390;2022-08-19T04:08:58;23.70;99.90
19728;DHT22;10015;52.530;13.390;2022-08-19T04:11:27;23.70;99.90
19728;DHT22;10015;52.530;13.390;2022-08-19T04:13:55;23.70;99.90
19728;DHT22;10015;52.530;13.390;2022-08-19T04:16:23;23.70;99.90
19728;DHT22;10015;52.530;13.390;2022-08-19T04:18:50;23.80;99.90
19728;DHT22;10015;52.530;13.390;2022-08-19T04:21:21;23.80;99.90
19728;DHT22;10015;52.530;13.390;2022-08-19T04:23:47;23.80;99.90
19728;DHT22;10015;52.530;13.390;2022-08-19T04:26:15;23.70;99.90
19728;DHT22;10015;52.530;13.390;2022-08-19T04:28:42;23.70;99.90
19728;DHT22;10015;52.530;13.390;2022-08-19T04:31:13;23.70;99.90
19728;DHT22;10015;52.530;13.390;2022-08-19T04:33:40;23.70;99.90
19728;DHT22;10015;52.530;13.390;2022-08-19T04:36:07;23.70;99.90
19728;DHT22;10015;52.530;13.390;2022-08-19T04:38:33;23.70;99.90
19728;DHT22;10015;52.530;13.390;2022-08-19T04:40:59;23.70;99.90
19728;DHT22;10015;52.530;13.390;2022-08-19T04:43:44;23.70;99.90
19728;DHT22;10015;52.530;13.390;2022-08-19T04:46:14;23.70;99.90
19728;DHT22;10015;52.530;13.390;2022-08-19T04:48:40;23.80;99.90
19728;DHT22;10015;52.530;13.390;2022-08-19T04:51:09;23.80;99.90
19728;DHT22;10015;52.530;13.390;2022-08-19T04:53:38;23.70;99.90
19728;DHT22;10015;52.530;13.390;2022-08-19T04:56:10;23.70;99.90
19728;DHT22;10015;52.530;13.390;2022-08-19T04:58:37;23.70;99.90
19728;DHT22;10015;52.530;13.390;2022-08-19T05:01:04;23.80;99.90
19728;DHT22;10015;52.530;13.390;2022-08-19T05:03:30;23.90;99.90
19728;DHT22;10015;52.530;13.390;2022-08-19T05:06:08;23.90;99.90
19728;DHT22;10015;52.530;13.390;2022-08-19T05:08:36;23.90;99.90
19728;DHT22;10015;52.530;13.390;2022-08-19T05:11:09;24.00;99.90
19728;DHT22;10015;52.530;13.390;2022-08-19T05:13:36;24.10;99.90
19728;DHT22;10015;52.530;13.390;2022-08-19T05:16:03;24.10;99.90
19728;DHT22;10015;52.530;13.390;2022-08-19T05:18:29;24.10;99.90
19728;DHT22;10015;52.530;13.390;2022-08-19T05:21:17;24.00;99.90
19728;DHT22;10015;52.530;13.390;2022-08-19T05:24:03;24.10;99.90
19728;DHT22;10015;52.530;13.390;2022-08-19T05:26:29;24.00;99.90
19728;DHT22;10015;52.530;13.390;2022-08-19T05:28:58;24.00;99.90
19728;DHT22;10015;52.530;13.390;2022-08-19T05:31:24;24.00;99.90
19728;DHT22;10015;52.530;13.390;2022-08-19T05:33:50;24.00;99.90
19728;DHT22;10015;52.530;13.390;2022-08-19T05:36:16;23.90;99.90
19728;DHT22;10015;52.530;13.390;2022-08-19T05:38:44;24.00;99.90
19728;DHT22;10015;52.530;13.390;2022-08-19T05:41:12;23.90;99.90
19728;DHT22;10015;52.530;13.390;2022-08-19T05:43:38;23.80;99.90
19728;DHT22;10015;52.530;13.390;2022-08-19T05:46:05;23.90;99.90
19728;DHT22;10015;52.530;13.390;2022-08-19T05:48:33;23.90;99.90
19728;DHT22;10015;52.530;13.390;2022-08-19T05:51:06;24.00;99.90
19728;DHT22;10015;52.530;13.390;2022-08-19T05:53:33;24.00;99.90
19728;DHT22;10015;52.530;13.390;2022-08-19T05:56:14;23.90;99.90
19728;DHT22;10015;52.530;13.390;2022-08-19T05:58:42;23.80;99.90
19728;DHT22;10015;52.530;13.390;2022-08-19T06:01:18;23.90;99.90
19728;DHT22;10015;52.530;13.390;2022-08-19T06:03:45;23.90;99.90
19728;DHT22;10015;52.530;13.390;2022-08-19T06:06:13;24.00;99.90
19728;DHT22;10015;52.530;13.390;2022-08-19T06:08:39;24.10;99.90
19728;DHT22;10015;52.530;13.390;2022-08-19T06:11:39;24.20;99.90
19728;DHT22;10015;52.530;13.390;2022-08-19T06:14:09;24.20;99.90
19728;DHT22;10015;52.530;13.390;2022-08-19T06:16:37;24.30;99.90
19728;DHT22;10015;52.530;13.390;2022-08-19T06:19:06;24.30;99.90
19728;DHT22;10015;52.530;13.390;2022-08-19T06:21:34;24.30;99.90
19728;DHT22;10015;52.530;13.390;2022-08-19T06:24:04;24.30;99.90
19728;DHT22;10015;52.530;13.390;2022-08-19T06:26:31;24.30;99.90
19728;DHT22;10015;52.530;13.390;2022-08-19T06:28:58;24.40;99.90
19728;DHT22;10015;52.530;13.390;2022-08-19T06:31:26;24.30;99.90
19728;DHT22;10015;52.530;13.390;2022-08-19T06:33:52;24.40;99.90
19728;DHT22;10015;52.530;13.390;2022-08-19T06:36:24;24.50;99.90
19728;DHT22;10015;52.530;13.390;2022-08-19T06:39:09;24.50;99.90
19728;DHT22;10015;52.530;13.390;2022-08-19T06:41:41;24.60;99.90
19728;DHT22;10015;52.530;13.390;2022-08-19T06:44:15;24.70;99.90
19728;DHT22;10015;52.530;13.390;2022-08-19T06:46:41;24.70;99.90
19728;DHT22;10015;52.530;13.390;2022-08-19T06:49:08;24.70;99.90
19728;DHT22;10015;52.530;13.390;2022-08-19T06:51:40;24.80;99.90
19728;DHT22;10015;52.530;13.390;2022-08-19T06:54:06;24.90;99.90
19728;DHT22;10015;52.530;13.390;2022-08-19T06:56:32;24.90;99.90
19728;DHT22;10015;52.530;13.390;2022-08-19T06:59:07;25.00;99.90
19728;DHT22;10015;52.530;13.390;2022-08-19T07:01:40;25.00;99.90
19728;DHT22;10015;52.530;13.390;2022-08-19T07:04:08;25.00;99.90
19728;DHT22;10015;52.530;13.390;2022-08-19T07:06:35;25.00;99.90
19728;DHT22;10015;52.530;13.390;2022-08-19T07:09:03;25.00;99.90
19728;DHT22;10015;52.530;13.390;2022-08-19T07:11:30;25.00;99.90
19728;DHT22;10015;52.530;13.390;2022-08-19T07:13:56;25.00;99.90
19728;DHT22;10015;52.530;13.390;2022-08-19T07:16:22;25.10;99.90
19728;DHT22;10015;52.530;13.390;2022-08-19T07:18:50;25.10;99.90
19728;DHT22;10015;52.530;13.390;2022-08-19T07:21:21;25.10;99.90
19728;DHT22;10015;52.530;13.390;2022-08-19T07:23:48;25.10;99.90
19728;DHT22;10015;52.530;13.390;2022-08-19T07:26:18;25.10;99.90
19728;DHT22;10015;52.530;13.390;2022-08-19T07:28:46;25.10;99.90
19728;DHT22;10015;52.530;13.390;2022-08-19T07:31:15;25.10;99.90
19728;DHT22;10015;52.530;13.390;2022-08-19T07:33:42;25.20;99.90
19728;DHT22;10015;52.530;13.390;2022-08-19T07:36:11;25.20;99.90
19728;DHT22;10015;52.530;13.390;2022-08-19T07:38:43;25.20;99.90
19728;DHT22;10015;52.530;13.390;2022-08-19T07:41:12;25.20;99.90
19728;DHT22;10015;52.530;13.390;2022-08-19T07:43:39;25.20;99.90
19728;DHT22;10015;52.530;13.390;2022-08-19T07:46:06;25.20;99.90
19728;DHT22;10015;52.530;13.390;2022-08-19T07:48:32;25.10;99.90
19728;DHT22;10015;52.530;13.390;2022-08-19T07:51:02;25.20;99.90
19728;DHT22;10015;52.530;13.390;2022-08-19T07:53:31;25.20;99.90
19728;DHT22;10015;52.530;13.390;2022-08-19T07:55:58;25.30;99.90
19728;DHT22;10015;52.530;13.390;2022-08-19T07:58:32;25.30;99.90
19728;DHT22;10015;52.530;13.390;2022-08-19T08:00:58;25.40;99.90
19728;DHT22;10015;52.530;13.390;2022-08-19T08:03:25;25.40;99.90
19728;DHT22;10015;52.530;13.390;2022-08-19T08:06:12;25.40;99.90
19728;DHT22;10015;52.530;13.390;2022-08-19T08:09:22;25.40;99.90
19728;DHT22;10015;52.530;13.390;2022-08-19T08:12:05;25.50;99.90
19728;DHT22;10015;52.530;13.390;2022-08-19T08:14:36;25.40;99.90
19728;DHT22;10015;52.530;13.390;2022-08-19T08:17:03;25.40;99.90
19728;DHT22;10015;52.530;13.390;2022-08-19T08:19:30;25.40;99.90
19728;DHT22;10015;52.530;13.390;2022-08-19T08:21:57;25.40;99.90
19728;DHT22;10015;52.530;13.390;2022-08-19T08:24:25;25.30;99.90
19728;DHT22;10015;52.530;13.390;2022-08-19T08:26:52;25.30;99.90
19728;DHT22;10015;52.530;13.390;2022-08-19T08:29:18;25.30;99.90
19728;DHT22;10015;52.530;13.390;2022-08-19T08:31:46;25.30;99.90
19728;DHT22;10015;52.530;13.390;2022-08-19T08:34:13;25.30;99.90
19728;DHT22;10015;52.530;13.390;2022-08-19T08:36:42;25.20;99.90
19728;DHT22;10015;52.530;13.390;2022-08-19T08:39:16;25.10;99.90
19728;DHT22;10015;52.530;13.390;2022-08-19T08:42:01;25.10;99.90
19728;DHT22;10015;52.530;13.390;2022-08-19T08:45:04;25.10;99.90
19728;DHT22;10015;52.530;13.390;2022-08-19T08:47:34;25.10;99.90
19728;DHT22;10015;52.530;13.390;2022-08-19T08:50:19;25.10;99.90
19728;DHT22;10015;52.530;13.390;2022-08-19T08:52:50;25.20;99.90
19728;DHT22;10015;52.530;13.390;2022-08-19T08:55:21;25.20;99.90
19728;DHT22;10015;52.530;13.390;2022-08-19T09:00:32;25.30;99.90
19728;DHT22;10015;52.530;13.390;2022-08-19T09:03:00;25.40;99.90
19728;DHT22;10015;52.530;13.390;2022-08-19T09:06:00;25.50;99.90
19728;DHT22;10015;52.530;13.390;2022-08-19T09:11:29;25.70;99.90
19728;DHT22;10015;52.530;13.390;2022-08-19T09:14:16;26.00;99.90
19728;DHT22;10015;52.530;13.390;2022-08-19T09:16:44;26.10;99.90
19728;DHT22;10015;52.530;13.390;2022-08-19T09:19:11;26.20;99.90
19728;DHT22;10015;52.530;13.390;2022-08-19T09:21:37;26.30;99.90
19728;DHT22;10015;52.530;13.390;2022-08-19T09:24:04;26.30;99.90
19728;DHT22;10015;52.530;13.390;2022-08-19T09:26:31;26.50;99.90
19728;DHT22;10015;52.530;13.390;2022-08-19T09:28:58;26.60;99.90
19728;DHT22;10015;52.530;13.390;2022-08-19T09:31:27;26.70;99.90
19728;DHT22;10015;52.530;13.390;2022-08-19T09:33:54;26.80;99.90
19728;DHT22;10015;52.530;13.390;2022-08-19T09:36:24;26.90;99.90
19728;DHT22;10015;52.530;13.390;2022-08-19T09:38:52;26.80;99.90
19728;DHT22;10015;52.530;13.390;2022-08-19T09:41:22;26.80;99.90
19728;DHT22;10015;52.530;13.390;2022-08-19T09:43:54;26.80;99.90
19728;DHT22;10015;52.530;13.390;2022-08-19T09:46:26;26.80;99.90
19728;DHT22;10015;52.530;13.390;2022-08-19T09:48:53;26.70;99.90
19728;DHT22;10015;52.530;13.390;2022-08-19T09:51:22;26.80;99.90
19728;DHT22;10015;52.530;13.390;2022-08-19T09:53:51;26.70;99.90
19728;DHT22;10015;52.530;13.390;2022-08-19T09:56:20;26.80;99.90
19728;DHT22;10015;52.530;13.390;2022-08-19T09:58:47;26.90;99.90
19728;DHT22;10015;52.530;13.390;2022-08-19T10:01:20;27.00;99.90
19728;DHT22;10015;52.530;13.390;2022-08-19T10:03:49;27.00;99.90
19728;DHT22;10015;52.530;13.390;2022-08-19T10:06:17;27.00;99.90
19728;DHT22;10015;52.530;13.390;2022-08-19T10:08:43;27.00;99.90
19728;DHT22;10015;52.530;13.390;2022-08-19T10:11:10;27.00;99.90
19728;DHT22;10015;52.530;13.390;2022-08-19T10:13:37;27.00;99.90
19728;DHT22;10015;52.530;13.390;2022-08-19T10:16:07;27.10;99.90
19728;DHT22;10015;52.530;13.390;2022-08-19T10:18:35;27.00;99.90
19728;DHT22;10015;52.530;13.390;2022-08-19T10:21:07;27.10;99.90
19728;DHT22;10015;52.530;13.390;2022-08-19T10:23:36;27.00;99.90
19728;DHT22;10015;52.530;13.390;2022-08-19T10:26:05;26.90;99.90
19728;DHT22;10015;52.530;13.390;2022-08-19T10:28:36;26.90;99.90
19728;DHT22;10015;52.530;13.390;2022-08-19T10:31:14;26.70;99.90
19728;DHT22;10015;52.530;13.390;2022-08-19T10:33:43;26.60;99.90
19728;DHT22;10015;52.530;13.390;2022-08-19T10:36:15;26.60;99.90
19728;DHT22;10015;52.530;13.390;2022-08-19T10:38:45;26.60;99.90
19728;DHT22;10015;52.530;13.390;2022-08-19T10:41:15;26.50;99.90
19728;DHT22;10015;52.530;13.390;2022-08-19T10:43:42;26.40;99.90
19728;DHT22;10015;52.530;13.390;2022-08-19T10:46:15;26.50;99.90
19728;DHT22;10015;52.530;13.390;2022-08-19T10:48:42;26.50;99.90
19728;DHT22;10015;52.530;13.390;2022-08-19T10:51:09;26.50;99.90
19728;DHT22;10015;52.530;13.390;2022-08-19T10:53:55;26.40;99.90
19728;DHT22;10015;52.530;13.390;2022-08-19T10:56:22;26.50;99.90
19728;DHT22;10015;52.530;13.390;2022-08-19T10:59:06;26.50;99.90
19728;DHT22;10015;52.530;13.390;2022-08-19T11:01:33;26.60;99.90
19728;DHT22;10015;52.530;13.390;2022-08-19T11:04:01;26.50;99.90
19728;DHT22;10015;52.530;13.390;2022-08-19T11:06:27;26.40;99.90
19728;DHT22;10015;52.530;13.390;2022-08-19T11:08:54;26.40;99.90
19728;DHT22;10015;52.530;13.390;2022-08-19T11:11:21;26.40;99.90
19728;DHT22;10015;52.530;13.390;2022-08-19T11:13:47;26.30;99.90
19728;DHT22;10015;52.530;13.390;2022-08-19T11:16:18;26.30;99.90
19728;DHT22;10015;52.530;13.390;2022-08-19T11:18:47;26.30;99.90
19728;DHT22;10015;52.530;13.390;2022-08-19T11:21:20;26.30;99.90
19728;DHT22;10015;52.530;13.390;2022-08-19T11:23:48;26.30;99.90
19728;DHT22;10015;52.530;13.390;2022-08-19T11:26:16;26.40;99.90
19728;DHT22;10015;52.530;13.390;2022-08-19T11:28:42;26.40;99.90
19728;DHT22;10015;52.530;13.390;2022-08-19T11:31:17;26.40;99.90
19728;DHT22;10015;52.530;13.390;2022-08-19T11:33:44;26.40;99.90
19728;DHT22;10015;52.530;13.390;2022-08-19T11:36:10;26.40;99.90
19728;DHT22;10015;52.530;13.390;2022-08-19T11:38:37;26.40;99.90
19728;DHT22;10015;52.530;13.390;2022-08-19T11:41:06;26.20;99.90
19728;DHT22;10015;52.530;13.390;2022-08-19T11:43:35;26.10;99.90
19728;DHT22;10015;52.530;13.390;2022-08-19T11:46:06;26.10;99.90
19728;DHT22;10015;52.530;13.390;2022-08-19T11:48:32;26.10;99.90
19728;DHT22;10015;52.530;13.390;2022-08-19T11:50:58;26.10;99.90
19728;DHT22;10015;52.530;13.390;2022-08-19T11:53:24;26.10;99.90
19728;DHT22;10015;52.530;13.390;2022-08-19T11:55:53;25.90;99.90
19728;DHT22;10015;52.530;13.390;2022-08-19T11:58:22;25.90;99.90
19728;DHT22;10015;52.530;13.390;2022-08-19T12:00:49;25.80;99.90
19728;DHT22;10015;52.530;13.390;2022-08-19T12:03:15;25.80;99.90
19728;DHT22;10015;52.530;13.390;2022-08-19T12:05:41;25.80;99.90
19728;DHT22;10015;52.530;13.390;2022-08-19T12:08:08;25.70;99.90
19728;DHT22;10015;52.530;13.390;2022-08-19T12:10:35;25.50;99.90
19728;DHT22;10015;52.530;13.390;2022-08-19T12:13:01;25.50;99.90
19728;DHT22;10015;52.530;13.390;2022-08-19T12:15:27;25.50;99.90
19728;DHT22;10015;52.530;13.390;2022-08-19T12:17:56;25.50;99.90
19728;DHT22;10015;52.530;13.390;2022-08-19T12:20:24;25.50;99.90
19728;DHT22;10015;52.530;13.390;2022-08-19T12:22:50;25.60;99.90
19728;DHT22;10015;52.530;13.390;2022-08-19T12:25:17;25.70;99.90
19728;DHT22;10015;52.530;13.390;2022-08-19T12:27:43;25.60;99.90
19728;DHT22;10015;52.530;13.390;2022-08-19T12:30:11;25.60;99.90
19728;DHT22;10015;52.530;13.390;2022-08-19T12:32:38;25.60;99.90
19728;DHT22;10015;52.530;13.390;2022-08-19T12:35:05;25.70;99.90
19728;DHT22;10015;52.530;13.390;2022-08-19T12:37:32;25.80;99.90
19728;DHT22;10015;52.530;13.390;2022-08-19T12:39:59;25.80;99.90
19728;DHT22;10015;52.530;13.390;2022-08-19T12:42:25;25.90;99.90
19728;DHT22;10015;52.530;13.390;2022-08-19T12:44:51;25.80;99.90
19728;DHT22;10015;52.530;13.390;2022-08-19T12:47:18;25.90;99.90
19728;DHT22;10015;52.530;13.390;2022-08-19T12:49:45;25.90;99.90
19728;DHT22;10015;52.530;13.390;2022-08-19T12:52:12;26.00;99.90
19728;DHT22;10015;52.530;13.390;2022-08-19T12:54:42;25.90;99.90
19728;DHT22;10015;52.530;13.390;2022-08-19T12:57:12;26.00;99.90
19728;DHT22;10015;52.530;13.390;2022-08-19T12:59:38;26.10;99.90
19728;DHT22;10015;52.530;13.390;2022-08-19T13:02:06;26.10;99.90
19728;DHT22;10015;52.530;13.390;2022-08-19T13:04:34;26.10;99.90
19728;DHT22;10015;52.530;13.390;2022-08-19T13:07:07;26.10;99.90
19728;DHT22;10015;52.530;13.390;2022-08-19T13:09:35;26.10;99.90
19728;DHT22;10015;52.530;13.390;2022-08-19T13:12:02;26.10;99.90
19728;DHT22;10015;52.530;13.390;2022-08-19T13:14:29;26.10;99.90
19728;DHT22;10015;52.530;13.390;2022-08-19T13:17:00;26.10;99.90
19728;DHT22;10015;52.530;13.390;2022-08-19T13:19:26;26.00;99.90
19728;DHT22;10015;52.530;13.390;2022-08-19T13:21:52;26.10;99.90
19728;DHT22;10015;52.530;13.390;2022-08-19T13:24:21;26.10;99.90
19728;DHT22;10015;52.530;13.390;2022-08-19T13:26:48;26.10;99.90
19728;DHT22;10015;52.530;13.390;2022-08-19T13:29:14;26.10;99.90
19728;DHT22;10015;52.530;13.390;2022-08-19T13:31:59;26.10;99.90
19728;DHT22;10015;52.530;13.390;2022-08-19T13:34:43;26.20;99.90
19728;DHT22;10015;52.530;13.390;2022-08-19T13:37:12;26.20;99.90
19728;DHT22;10015;52.530;13.390;2022-08-19T13:39:39;26.10;99.90
19728;DHT22;10015;52.530;13.390;2022-08-19T13:42:06;26.10;99.90
19728;DHT22;10015;52.530;13.390;2022-08-19T13:44:34;26.10;99.90
19728;DHT22;10015;52.530;13.390;2022-08-19T13:47:02;26.10;99.90
19728;DHT22;10015;52.530;13.390;2022-08-19T13:49:34;26.10;99.90
19728;DHT22;10015;52.530;13.390;2022-08-19T13:52:03;26.10;99.90
19728;DHT22;10015;52.530;13.390;2022-08-19T13:54:29;26.00;99.90
19728;DHT22;10015;52.530;13.390;2022-08-19T13:56:56;26.00;99.90
19728;DHT22;10015;52.530;13.390;2022-08-19T13:59:22;26.10;99.90
19728;DHT22;10015;52.530;13.390;2022-08-19T14:01:48;26.10;99.90
19728;DHT22;10015;52.530;13.390;2022-08-19T14:04:15;26.10;99.90
19728;DHT22;10015;52.530;13.390;2022-08-19T14:06:43;26.10;99.90
19728;DHT22;10015;52.530;13.390;2022-08-19T14:09:09;26.10;99.90
19728;DHT22;10015;52.530;13.390;2022-08-19T14:11:35;26.10;99.90
19728;DHT22;10015;52.530;13.390;2022-08-19T14:14:01;26.10;99.90
19728;DHT22;10015;52.530;13.390;2022-08-19T14:16:28;26.10;99.90
19728;DHT22;10015;52.530;13.390;2022-08-19T14:18:59;26.20;99.90
19728;DHT22;10015;52.530;13.390;2022-08-19T14:21:25;26.30;99.90
19728;DHT22;10015;52.530;13.390;2022-08-19T14:23:52;26.30;99.90
19728;DHT22;10015;52.530;13.390;2022-08-19T14:26:20;26.20;99.90
19728;DHT22;10015;52.530;13.390;2022-08-19T14:28:47;26.10;99.90
19728;DHT22;10015;52.530;13.390;2022-08-19T14:31:14;26.10;99.90
19728;DHT22;10015;52.530;13.390;2022-08-19T14:33:45;26.10;99.90
19728;DHT22;10015;52.530;13.390;2022-08-19T14:36:11;26.00;99.90
19728;DHT22;10015;52.530;13.390;2022-08-19T14:38:37;26.00;99.90
19728;DHT22;10015;52.530;13.390;2022-08-19T14:41:19;26.00;99.90
19728;DHT22;10015;52.530;13.390;2022-08-19T14:43:48;26.00;99.90
19728;DHT22;10015;52.530;13.390;2022-08-19T14:46:18;26.00;99.90
19728;DHT22;10015;52.530;13.390;2022-08-19T14:48:46;25.90;99.90
19728;DHT22;10015;52.530;13.390;2022-08-19T14:51:13;25.90;99.90
19728;DHT22;10015;52.530;13.390;2022-08-19T14:53:40;25.90;99.90
19728;DHT22;10015;52.530;13.390;2022-08-19T14:56:12;25.90;99.90
19728;DHT22;10015;52.530;13.390;2022-08-19T14:58:42;25.70;99.90
19728;DHT22;10015;52.530;13.390;2022-08-19T15:01:09;25.60;99.90
19728;DHT22;10015;52.530;13.390;2022-08-19T15:03:35;25.60;99.90
19728;DHT22;10015;52.530;13.390;2022-08-19T15:06:10;25.60;99.90
19728;DHT22;10015;52.530;13.390;2022-08-19T15:08:37;25.60;99.90
19728;DHT22;10015;52.530;13.390;2022-08-19T15:11:10;25.60;99.90
19728;DHT22;10015;52.530;13.390;2022-08-19T15:13:37;25.50;99.90
19728;DHT22;10015;52.530;13.390;2022-08-19T15:16:04;25.50;99.90
19728;DHT22;10015;52.530;13.390;2022-08-19T15:18:30;25.40;99.90
19728;DHT22;10015;52.530;13.390;2022-08-19T15:20:56;25.40;99.90
19728;DHT22;10015;52.530;13.390;2022-08-19T15:23:23;25.40;99.90
19728;DHT22;10015;52.530;13.390;2022-08-19T15:25:50;25.40;99.90
19728;DHT22;10015;52.530;13.390;2022-08-19T15:28:22;25.40;99.90
19728;DHT22;10015;52.530;13.390;2022-08-19T15:30:48;25.40;99.90
19728;DHT22;10015;52.530;13.390;2022-08-19T15:33:16;25.40;99.90
19728;DHT22;10015;52.530;13.390;2022-08-19T15:35:46;25.40;99.90
19728;DHT22;10015;52.530;13.390;2022-08-19T15:38:13;25.40;99.90
19728;DHT22;10015;52.530;13.390;2022-08-19T15:40:41;25.30;99.90
19728;DHT22;10015;52.530;13.390;2022-08-19T15:43:07;25.30;99.90
19728;DHT22;10015;52.530;13.390;2022-08-19T15:45:33;25.30;99.90
19728;DHT22;10015;52.530;13.390;2022-08-19T15:48:02;25.30;99.90
19728;DHT22;10015;52.530;13.390;2022-08-19T15:50:29;25.30;99.90
19728;DHT22;10015;52.530;13.390;2022-08-19T15:53:00;25.30;99.90